Terminal Aerodrome Forecast
Issued by NWS

Home | Current Version | Previous Version | Text Only | Print | Product List | Glossary On
Versions: 1 2 3 4 5 6 7 8 9 10 11 12 13 14 15 16 17 18 19 20 21 22 23 24 25
896
FTUS42 KCAE 281720
TAFDNL
TAF
KDNL 281720Z 2818/2918 23009KT P6SM VCSH SCT025 BKN040
      TEMPO 2818/2822 4SM -TSRA BKN030CB
     FM290000 25004KT P6SM SCT045
     FM290400 VRB03KT P6SM SKC=

USA.gov is the U.S. government's official web portal to all federal, state and local government web resources and services.